createdAt,value
2024-03-05T00:00:13.734Z,18.87
2024-03-05T00:02:42.714Z,18.17
2024-03-05T00:05:15.212Z,17.60
2024-03-05T00:07:44.458Z,17.30
2024-03-05T00:10:14.137Z,18.93
2024-03-05T00:12:44.516Z,20.10
2024-03-05T00:15:13.462Z,18.07
2024-03-05T00:17:42.203Z,17.83
2024-03-05T00:20:19.551Z,18.83
2024-03-05T00:22:49.816Z,18.70
2024-03-05T00:25:18.904Z,18.17
2024-03-05T00:27:49.421Z,17.73
2024-03-05T00:30:19.807Z,19.17
2024-03-05T00:32:48.957Z,17.40
2024-03-05T00:35:18.014Z,18.07
2024-03-05T00:37:47.076Z,19.70
2024-03-05T00:40:15.939Z,18.40
2024-03-05T00:42:44.855Z,19.17
2024-03-05T00:45:18.243Z,16.50
2024-03-05T00:47:47.127Z,19.07
2024-03-05T00:50:16.166Z,20.27
2024-03-05T00:52:44.855Z,19.20
2024-03-05T00:55:13.667Z,21.33
2024-03-05T00:57:42.417Z,18.20
2024-03-05T01:00:14.377Z,18.47
2024-03-05T01:02:44.742Z,18.90
2024-03-05T01:05:13.729Z,19.10
2024-03-05T01:07:42.566Z,20.40
2024-03-05T01:10:12.218Z,17.93
2024-03-05T01:12:41.449Z,18.80
2024-03-05T01:15:10.742Z,16.60
2024-03-05T01:17:40.958Z,17.50
2024-03-05T01:20:17.067Z,17.67
2024-03-05T01:22:47.746Z,16.10
2024-03-05T01:25:18.093Z,17.53
2024-03-05T01:27:47.036Z,18.97
2024-03-05T01:30:15.857Z,17.83
2024-03-05T01:32:47.735Z,18.67
2024-03-05T01:35:19.492Z,17.80
2024-03-05T01:37:48.565Z,17.43
2024-03-05T01:40:20.515Z,17.27
2024-03-05T01:42:49.939Z,18.00
2024-03-05T01:45:19.848Z,19.40
2024-03-05T01:47:49.803Z,17.63
2024-03-05T01:50:20.112Z,18.33
2024-03-05T01:52:49.051Z,17.90
2024-03-05T01:55:19.115Z,18.80
2024-03-05T01:57:48.940Z,19.50
2024-03-05T02:00:21.726Z,17.33
2024-03-05T02:02:51.172Z,19.10
2024-03-05T02:05:21.288Z,19.13
2024-03-05T02:07:50.218Z,18.40
2024-03-05T02:10:19.185Z,18.90
2024-03-05T02:12:48.987Z,17.87
2024-03-05T02:15:20.088Z,18.07
2024-03-05T02:17:48.941Z,19.97
2024-03-05T02:20:18.501Z,18.87
2024-03-05T02:22:48.668Z,18.83
2024-03-05T02:25:19.196Z,20.57
2024-03-05T02:27:48.592Z,19.73
2024-03-05T02:30:17.263Z,19.70
2024-03-05T02:32:46.190Z,19.37
2024-03-05T02:35:14.982Z,18.57
2024-03-05T02:37:44.883Z,19.60
2024-03-05T02:40:15.667Z,18.47
2024-03-05T02:42:44.968Z,20.83
2024-03-05T02:45:14.230Z,21.77
2024-03-05T02:47:43.557Z,21.43
2024-03-05T02:50:13.050Z,19.13
2024-03-05T02:52:42.262Z,20.40
2024-03-05T02:55:11.588Z,20.23
2024-03-05T02:57:43.048Z,19.47
2024-03-05T03:00:20.061Z,20.43
2024-03-05T03:02:50.758Z,20.63
2024-03-05T03:05:22.507Z,20.43
2024-03-05T03:07:52.168Z,21.43
2024-03-05T03:10:21.305Z,20.83
2024-03-05T03:12:51.434Z,19.50
2024-03-05T03:15:21.515Z,21.70
2024-03-05T03:17:50.964Z,20.57
2024-03-05T03:20:20.185Z,20.70
2024-03-05T03:22:49.386Z,20.10
2024-03-05T03:25:18.244Z,20.07
2024-03-05T03:27:47.425Z,20.60
2024-03-05T03:30:21.345Z,20.87
2024-03-05T03:32:51.536Z,21.73
2024-03-05T03:35:20.674Z,21.30
2024-03-05T03:37:50.020Z,20.00
2024-03-05T03:40:23.359Z,19.30
2024-03-05T03:42:53.610Z,21.37
2024-03-05T03:45:23.800Z,21.27
2024-03-05T03:47:52.533Z,21.07
2024-03-05T03:50:21.361Z,21.00
2024-03-05T03:52:50.586Z,20.40
2024-03-05T03:55:19.515Z,19.97
2024-03-05T03:57:48.791Z,20.77
2024-03-05T04:00:19.916Z,21.50
2024-03-05T04:02:50.382Z,20.17
2024-03-05T04:05:19.469Z,20.37
2024-03-05T04:07:48.229Z,21.60
2024-03-05T04:10:18.007Z,20.37
2024-03-05T04:12:47.082Z,20.97
2024-03-05T04:15:19.979Z,20.70
2024-03-05T04:17:50.951Z,21.13
2024-03-05T04:20:21.110Z,20.23
2024-03-05T04:22:49.828Z,20.27
2024-03-05T04:25:23.129Z,21.27
2024-03-05T04:27:51.906Z,21.27
2024-03-05T04:30:21.215Z,20.23
2024-03-05T04:32:59.122Z,20.50
2024-03-05T04:35:30.458Z,21.00
2024-03-05T04:37:59.774Z,20.80
2024-03-05T04:40:31.065Z,21.23
2024-03-05T04:42:59.817Z,20.63
2024-03-05T04:45:28.788Z,20.47
2024-03-05T04:47:58.946Z,22.53
2024-03-05T04:50:27.991Z,20.67
2024-03-05T04:52:56.901Z,22.00
2024-03-05T04:55:25.797Z,20.53
2024-03-05T04:57:54.632Z,21.13
2024-03-05T05:00:24.622Z,21.67
2024-03-05T05:02:54.379Z,21.70
2024-03-05T05:05:27.291Z,20.33
2024-03-05T05:07:58.604Z,20.70
2024-03-05T05:10:27.602Z,19.53
2024-03-05T05:12:56.904Z,21.47
2024-03-05T05:15:26.083Z,22.33
2024-03-05T05:17:54.964Z,19.37
2024-03-05T05:20:25.172Z,20.33
2024-03-05T05:22:53.980Z,22.10
2024-03-05T05:25:23.301Z,21.63
2024-03-05T05:27:52.125Z,22.33
2024-03-05T05:30:21.499Z,20.73
2024-03-05T05:32:50.546Z,20.80
2024-03-05T05:35:20.162Z,20.70
2024-03-05T05:37:50.500Z,21.70
2024-03-05T05:40:21.413Z,20.33
2024-03-05T05:42:51.786Z,21.53
2024-03-05T05:45:23.153Z,20.97
2024-03-05T05:47:55.034Z,21.00
2024-03-05T05:50:26.608Z,21.13
2024-03-05T05:52:57.258Z,22.70
2024-03-05T05:55:27.560Z,20.90
2024-03-05T05:57:58.355Z,21.30
2024-03-05T06:00:37.618Z,21.77
2024-03-05T06:03:09.065Z,22.63
2024-03-05T06:05:38.848Z,21.90
2024-03-05T06:08:12.630Z,21.80
2024-03-05T06:10:43.112Z,22.50
2024-03-05T06:13:12.460Z,24.47
2024-03-05T06:15:41.400Z,22.90
2024-03-05T06:18:10.242Z,21.70
2024-03-05T06:20:39.963Z,21.50
2024-03-05T06:23:10.172Z,22.00
2024-03-05T06:25:40.289Z,21.70
2024-03-05T06:28:10.904Z,22.47
2024-03-05T06:30:44.737Z,23.83
2024-03-05T06:33:14.904Z,21.67
2024-03-05T06:35:43.674Z,20.90
2024-03-05T06:38:14.254Z,22.57
2024-03-05T06:40:43.222Z,21.20
2024-03-05T06:43:17.014Z,21.83
2024-03-05T06:45:47.960Z,23.50
2024-03-05T06:48:24.581Z,24.33
2024-03-05T06:50:58.947Z,22.53
2024-03-05T06:53:46.821Z,21.53
2024-03-05T06:56:32.991Z,23.30
2024-03-05T06:59:01.816Z,23.27
2024-03-05T07:01:30.787Z,22.80
2024-03-05T07:03:59.656Z,24.57
2024-03-05T07:06:28.288Z,22.13
2024-03-05T07:08:58.397Z,22.87
2024-03-05T07:11:28.247Z,24.20
2024-03-05T07:13:59.081Z,23.27
2024-03-05T07:16:27.994Z,21.60
2024-03-05T07:18:56.817Z,23.00
2024-03-05T07:21:26.683Z,25.40
2024-03-05T07:23:57.639Z,22.67
2024-03-05T07:26:26.441Z,21.87
2024-03-05T07:28:55.137Z,22.10
2024-03-05T07:31:25.260Z,22.37
2024-03-05T07:33:55.803Z,23.10
2024-03-05T07:36:24.112Z,22.70
2024-03-05T07:38:53.982Z,21.77
2024-03-05T07:41:30.401Z,22.73
2024-03-05T07:44:05.582Z,22.23
2024-03-05T07:46:35.549Z,20.37
2024-03-05T07:49:05.360Z,21.30
2024-03-05T07:51:41.475Z,22.90
2024-03-05T07:54:15.035Z,20.67
2024-03-05T07:56:45.467Z,21.33
2024-03-05T07:59:14.768Z,21.50
2024-03-05T08:01:43.632Z,21.33
2024-03-05T08:04:12.407Z,21.17
2024-03-05T08:06:41.191Z,20.80
2024-03-05T08:09:09.848Z,20.63
2024-03-05T08:11:38.550Z,22.20
2024-03-05T08:14:09.374Z,21.53
2024-03-05T08:16:40.140Z,21.27
2024-03-05T08:19:09.551Z,21.53
2024-03-05T08:21:38.340Z,23.70
2024-03-05T08:24:09.526Z,19.30
2024-03-05T08:26:38.189Z,20.90
2024-03-05T08:29:09.062Z,24.07
2024-03-05T08:31:39.908Z,20.73
2024-03-05T08:34:09.520Z,23.03
2024-03-05T08:36:43.709Z,22.20
2024-03-05T08:39:18.791Z,21.53
2024-03-05T08:41:49.113Z,21.27
2024-03-05T08:44:19.885Z,19.70
2024-03-05T08:46:48.666Z,20.87
2024-03-05T08:49:17.355Z,21.50
2024-03-05T08:51:46.505Z,23.00
2024-03-05T08:54:17.411Z,21.43
2024-03-05T08:56:46.661Z,23.43
2024-03-05T08:59:15.478Z,21.90
2024-03-05T09:01:45.561Z,22.60
2024-03-05T09:04:14.268Z,21.83
2024-03-05T09:06:42.972Z,22.30
2024-03-05T09:09:13.343Z,22.80
2024-03-05T09:11:42.178Z,20.60
2024-03-05T09:14:11.716Z,20.67
2024-03-05T09:16:41.066Z,21.47
2024-03-05T09:19:14.861Z,20.87
2024-03-05T09:21:47.214Z,21.53
2024-03-05T09:24:15.913Z,23.47
2024-03-05T09:26:44.695Z,21.63
2024-03-05T09:29:16.352Z,21.20
2024-03-05T09:31:45.415Z,21.47
2024-03-05T09:34:15.589Z,22.63
2024-03-05T09:36:44.381Z,21.17
2024-03-05T09:39:13.089Z,21.53
2024-03-05T09:41:46.061Z,22.67
2024-03-05T09:44:15.378Z,22.93
2024-03-05T09:46:46.815Z,22.37
2024-03-05T09:49:23.109Z,23.30
2024-03-05T09:51:54.522Z,22.50
2024-03-05T09:54:23.910Z,23.50
2024-03-05T09:56:54.898Z,24.70
2024-03-05T09:59:23.789Z,24.93
2024-03-05T10:01:52.838Z,22.70
2024-03-05T10:04:27.552Z,25.80
2024-03-05T10:06:56.314Z,24.20
2024-03-05T10:09:26.473Z,24.70
2024-03-05T10:11:55.843Z,26.33
2024-03-05T10:14:26.397Z,23.17
2024-03-05T10:17:03.286Z,25.60
2024-03-05T10:19:43.998Z,23.70
2024-03-05T10:22:13.048Z,25.37
2024-03-05T10:24:41.968Z,26.07
2024-03-05T10:27:15.514Z,26.20
2024-03-05T10:29:44.221Z,26.30
2024-03-05T10:32:13.314Z,25.07
2024-03-05T10:34:47.470Z,25.50
2024-03-05T10:37:16.361Z,26.73
2024-03-05T10:39:45.090Z,26.30
2024-03-05T10:42:15.002Z,26.83
2024-03-05T10:44:44.260Z,28.23
2024-03-05T10:47:14.120Z,26.77
2024-03-05T10:49:43.128Z,27.30
2024-03-05T10:52:13.282Z,25.83
2024-03-05T10:54:43.888Z,27.00
2024-03-05T10:57:12.503Z,25.80
2024-03-05T10:59:42.483Z,27.23
2024-03-05T11:02:14.984Z,25.00
2024-03-05T11:04:45.137Z,26.33
2024-03-05T11:07:20.462Z,27.37
2024-03-05T11:09:49.742Z,26.57
2024-03-05T11:12:20.764Z,28.13
2024-03-05T11:14:50.997Z,27.40
2024-03-05T11:17:19.815Z,27.67
2024-03-05T11:19:49.003Z,25.97
2024-03-05T11:22:27.431Z,26.07
2024-03-05T11:25:02.369Z,25.33
2024-03-05T11:27:32.045Z,22.77
2024-03-05T11:30:13.333Z,23.90
2024-03-05T11:32:45.421Z,24.77
2024-03-05T11:35:14.805Z,24.13
2024-03-05T11:37:53.503Z,27.83
2024-03-05T11:40:23.718Z,24.20
2024-03-05T11:42:55.452Z,24.90
2024-03-05T11:45:47.727Z,24.00
2024-03-05T11:48:17.313Z,25.27
2024-03-05T11:50:46.311Z,24.40
2024-03-05T11:53:16.647Z,25.13
2024-03-05T11:55:45.510Z,22.70
2024-03-05T11:58:16.965Z,24.87
2024-03-05T12:00:48.177Z,22.80
2024-03-05T12:03:20.072Z,22.40
2024-03-05T12:05:48.964Z,23.13
2024-03-05T12:08:25.612Z,23.93
2024-03-05T12:11:04.001Z,24.33
2024-03-05T12:13:32.914Z,21.53
2024-03-05T12:16:11.199Z,24.87
2024-03-05T12:18:40.332Z,25.13
2024-03-05T12:21:10.055Z,25.07
2024-03-05T12:23:42.972Z,23.90
2024-03-05T12:26:13.558Z,24.57
2024-03-05T12:28:42.588Z,27.10
2024-03-05T12:31:11.969Z,23.93
2024-03-05T12:33:40.624Z,23.83
2024-03-05T12:36:14.446Z,22.97
2024-03-05T12:38:44.741Z,24.00
2024-03-05T12:41:21.346Z,24.27
2024-03-05T12:43:54.455Z,22.57
2024-03-05T12:46:23.586Z,23.73
2024-03-05T12:48:58.058Z,23.10
2024-03-05T12:51:26.896Z,24.57
2024-03-05T12:54:12.119Z,22.83
2024-03-05T12:56:45.211Z,24.30
2024-03-05T12:59:20.340Z,21.73
2024-03-05T13:01:49.068Z,22.90
2024-03-05T13:04:20.258Z,23.03
2024-03-05T13:06:49.074Z,21.83
2024-03-05T13:09:21.373Z,21.20
2024-03-05T13:11:50.593Z,21.40
2024-03-05T13:14:23.180Z,21.50
2024-03-05T13:16:53.798Z,19.33
2024-03-05T13:19:23.336Z,18.90
2024-03-05T13:21:52.459Z,20.00
2024-03-05T13:24:24.158Z,20.63
2024-03-05T13:26:52.871Z,20.20
2024-03-05T13:29:21.589Z,21.53
2024-03-05T13:31:50.436Z,21.63
2024-03-05T13:34:23.693Z,22.43
2024-03-05T13:36:52.769Z,22.27
2024-03-05T13:39:23.820Z,22.37
2024-03-05T13:41:54.742Z,22.33
2024-03-05T13:44:24.803Z,21.37
2024-03-05T13:46:54.125Z,22.10
2024-03-05T13:49:25.221Z,21.97
2024-03-05T13:51:54.926Z,22.60
2024-03-05T13:54:25.141Z,22.60
2024-03-05T13:56:54.828Z,22.80
2024-03-05T13:59:23.534Z,23.00
2024-03-05T14:01:52.189Z,23.63
2024-03-05T14:04:21.536Z,25.80
2024-03-05T14:06:50.875Z,23.80
2024-03-05T14:09:21.592Z,25.03
2024-03-05T14:11:51.787Z,26.27
2024-03-05T14:14:21.723Z,25.37
2024-03-05T14:16:51.096Z,25.73
2024-03-05T14:19:20.026Z,23.10
2024-03-05T14:21:48.689Z,25.30
2024-03-05T14:24:17.348Z,23.53
2024-03-05T14:26:46.089Z,21.27
2024-03-05T14:29:16.171Z,20.87
2024-03-05T14:31:44.896Z,21.50
2024-03-05T14:34:14.085Z,23.00
2024-03-05T14:36:43.404Z,23.50
2024-03-05T14:39:12.074Z,22.37
2024-03-05T14:41:40.817Z,22.80
2024-03-05T14:44:12.201Z,22.17
2024-03-05T14:46:43.401Z,22.90
2024-03-05T14:49:13.678Z,24.13
2024-03-05T14:51:43.768Z,22.50
2024-03-05T14:54:13.575Z,23.93
2024-03-05T14:56:42.300Z,22.73
2024-03-05T14:59:11.834Z,23.60
2024-03-05T15:01:42.043Z,24.30
2024-03-05T15:04:10.823Z,22.87
2024-03-05T15:06:39.540Z,22.97
2024-03-05T15:09:08.949Z,15.67
2024-03-05T15:11:37.816Z,16.07
2024-03-05T15:14:07.291Z,15.27
2024-03-05T15:16:37.699Z,14.20
2024-03-05T15:19:07.890Z,15.47
2024-03-05T15:21:38.445Z,14.23
2024-03-05T15:24:08.195Z,13.67
2024-03-05T15:29:06.288Z,17.07
2024-03-05T15:31:35.082Z,17.23
2024-03-05T15:34:03.831Z,18.17
2024-03-05T15:36:34.220Z,16.93
2024-03-05T15:39:04.391Z,13.53
2024-03-05T15:41:33.098Z,14.03
2024-03-05T15:44:01.887Z,14.30
2024-03-05T15:46:30.571Z,13.07
2024-03-05T15:49:01.575Z,12.33
2024-03-05T15:51:30.275Z,10.50
2024-03-05T15:54:01.257Z,12.17
2024-03-05T15:56:46.352Z,8.10
2024-03-05T15:59:33.057Z,7.50
2024-03-05T16:02:01.900Z,6.90
2024-03-05T16:04:50.238Z,7.30
2024-03-05T16:07:19.438Z,7.40
2024-03-05T16:09:50.150Z,7.10
2024-03-05T16:12:18.988Z,5.83
2024-03-05T16:14:47.781Z,5.10
2024-03-05T16:17:17.221Z,14.57
2024-03-05T16:19:46.105Z,8.47
2024-03-05T16:22:15.047Z,6.30
2024-03-05T16:24:44.626Z,12.40
2024-03-05T16:27:16.220Z,6.10
2024-03-05T16:29:44.953Z,4.10
2024-03-05T16:32:14.371Z,4.83
2024-03-05T16:34:45.536Z,4.60
2024-03-05T16:37:16.629Z,4.23
2024-03-05T16:39:48.360Z,4.53
2024-03-05T16:42:18.474Z,4.10
2024-03-05T16:44:47.151Z,4.77
2024-03-05T16:47:15.872Z,4.70
2024-03-05T16:49:44.733Z,5.73
2024-03-05T16:52:13.459Z,4.90
2024-03-05T16:54:42.160Z,5.13
2024-03-05T16:57:11.267Z,5.37
2024-03-05T16:59:41.701Z,5.83
2024-03-05T17:02:12.408Z,5.87
2024-03-05T17:04:42.826Z,5.60
2024-03-05T17:07:11.641Z,5.87
2024-03-05T17:09:40.474Z,5.30
2024-03-05T17:12:11.018Z,5.30
2024-03-05T17:14:44.172Z,4.20
2024-03-05T17:17:13.155Z,4.13
2024-03-05T17:19:42.565Z,7.30
2024-03-05T17:22:12.377Z,5.90
2024-03-05T17:24:41.367Z,8.20
2024-03-05T17:27:11.120Z,6.13
2024-03-05T17:29:41.947Z,5.77
2024-03-05T17:32:11.177Z,5.50
2024-03-05T17:34:39.886Z,5.87
2024-03-05T17:37:09.442Z,4.83
2024-03-05T17:39:38.121Z,5.50
2024-03-05T17:42:07.996Z,6.00
2024-03-05T17:44:36.712Z,5.00
2024-03-05T17:47:08.539Z,4.40
2024-03-05T17:49:37.620Z,4.80
2024-03-05T17:52:07.088Z,5.43
2024-03-05T17:54:35.798Z,6.10
2024-03-05T17:57:04.585Z,5.37
2024-03-05T17:59:33.778Z,5.20
2024-03-05T18:02:02.645Z,5.50
2024-03-05T18:04:33.426Z,5.80
2024-03-05T18:07:05.556Z,5.40
2024-03-05T18:09:37.640Z,6.27
2024-03-05T18:12:09.424Z,5.73
2024-03-05T18:14:38.116Z,5.83
2024-03-05T18:17:08.793Z,6.27
2024-03-05T18:19:39.244Z,6.10
2024-03-05T18:22:08.314Z,5.70
2024-03-05T18:24:37.708Z,5.90
2024-03-05T18:27:15.127Z,6.20
2024-03-05T18:29:44.897Z,7.00
2024-03-05T18:32:14.600Z,5.50
2024-03-05T18:34:44.825Z,5.20
2024-03-05T18:37:13.859Z,6.77
2024-03-05T18:39:42.569Z,6.50
2024-03-05T18:42:15.609Z,6.20
2024-03-05T18:44:45.246Z,6.70
2024-03-05T18:47:14.142Z,6.50
2024-03-05T18:49:44.217Z,6.47
2024-03-05T18:52:15.349Z,6.00
2024-03-05T18:54:44.070Z,7.10
2024-03-05T18:57:13.033Z,7.10
2024-03-05T18:59:41.800Z,7.50
2024-03-05T19:02:10.683Z,8.13
2024-03-05T19:04:39.562Z,7.83
2024-03-05T19:07:09.893Z,8.20
2024-03-05T19:09:38.654Z,8.73
2024-03-05T19:12:09.072Z,8.23
2024-03-05T19:14:37.779Z,8.00
2024-03-05T19:17:07.094Z,7.97
2024-03-05T19:19:35.876Z,9.40
2024-03-05T19:22:04.557Z,8.03
2024-03-05T19:24:34.626Z,11.63
2024-03-05T19:27:05.025Z,9.67
2024-03-05T19:29:33.680Z,9.87
2024-03-05T19:32:02.354Z,8.90
2024-03-05T19:34:31.928Z,8.13
2024-03-05T19:37:00.988Z,10.00
2024-03-05T19:39:30.071Z,9.30
2024-03-05T19:42:00.213Z,12.07
2024-03-05T19:44:29.304Z,20.00
2024-03-05T19:46:58.030Z,9.60
2024-03-05T19:49:28.052Z,8.80
2024-03-05T19:51:58.152Z,9.53
2024-03-05T19:54:29.200Z,8.80
2024-03-05T19:56:59.418Z,9.90
2024-03-05T19:59:28.681Z,10.27
2024-03-05T20:01:57.857Z,8.93
2024-03-05T20:04:27.132Z,10.13
2024-03-05T20:06:55.887Z,12.40
2024-03-05T20:09:24.688Z,11.40
2024-03-05T20:11:53.456Z,12.57
2024-03-05T20:14:23.900Z,11.17
2024-03-05T20:16:52.622Z,10.43
2024-03-05T20:19:21.641Z,10.67
2024-03-05T20:21:51.337Z,10.80
2024-03-05T20:24:20.002Z,12.00
2024-03-05T20:26:48.870Z,12.27
2024-03-05T20:29:17.832Z,13.70
2024-03-05T20:31:49.173Z,11.30
2024-03-05T20:34:19.498Z,11.43
2024-03-05T20:36:48.460Z,13.87
2024-03-05T20:39:18.573Z,11.00
2024-03-05T20:41:47.507Z,12.07
2024-03-05T20:44:16.551Z,11.80
2024-03-05T20:46:45.269Z,11.33
2024-03-05T20:49:16.196Z,11.67
2024-03-05T20:51:44.904Z,11.87
2024-03-05T20:54:13.561Z,12.23
2024-03-05T20:56:42.193Z,13.70
2024-03-05T20:59:11.295Z,13.40
2024-03-05T21:01:43.151Z,13.37
2024-03-05T21:04:12.559Z,12.53
2024-03-05T21:06:42.617Z,13.63
2024-03-05T21:09:14.423Z,14.13
2024-03-05T21:11:43.140Z,13.90
2024-03-05T21:14:11.896Z,12.87
2024-03-05T21:16:40.602Z,15.00
2024-03-05T21:19:09.280Z,13.77
2024-03-05T21:21:38.592Z,12.90
2024-03-05T21:24:08.916Z,12.80
2024-03-05T21:26:54.131Z,13.30
2024-03-05T21:29:26.703Z,12.90
2024-03-05T21:31:55.536Z,13.27
2024-03-05T21:34:24.485Z,12.10
2024-03-05T21:36:53.537Z,12.40
2024-03-05T21:39:23.599Z,12.80
2024-03-05T21:41:52.280Z,14.87
2024-03-05T21:44:26.148Z,14.77
2024-03-05T21:47:04.393Z,14.07
2024-03-05T21:49:33.204Z,14.93
2024-03-05T21:52:02.074Z,15.57
2024-03-05T21:54:32.473Z,14.33
2024-03-05T21:57:01.169Z,13.40
2024-03-05T21:59:29.812Z,13.00
2024-03-05T22:01:58.578Z,12.90
2024-03-05T22:04:27.309Z,12.33
2024-03-05T22:06:56.377Z,12.43
2024-03-05T22:09:25.884Z,12.20
2024-03-05T22:11:56.103Z,11.87
2024-03-05T22:14:24.836Z,11.93
2024-03-05T22:16:53.588Z,11.50
2024-03-05T22:19:22.329Z,11.50
2024-03-05T22:21:51.010Z,11.47
2024-03-05T22:24:19.684Z,10.23
2024-03-05T22:26:48.805Z,11.50
2024-03-05T22:29:18.947Z,9.77
2024-03-05T22:31:47.668Z,8.10
2024-03-05T22:34:16.364Z,8.20
2024-03-05T22:36:45.451Z,7.90
2024-03-05T22:39:14.143Z,7.80
2024-03-05T22:41:44.981Z,7.30
2024-03-05T22:44:13.755Z,8.00
2024-03-05T22:46:43.989Z,7.90
2024-03-05T22:49:12.655Z,8.30
2024-03-05T22:51:41.328Z,7.60
2024-03-05T22:54:10.055Z,8.07
2024-03-05T22:56:38.756Z,8.07
2024-03-05T22:59:09.377Z,7.40
2024-03-05T23:01:38.308Z,8.30
2024-03-05T23:04:08.773Z,6.80
2024-03-05T23:06:38.497Z,7.90
2024-03-05T23:09:08.031Z,8.50
2024-03-05T23:11:36.851Z,8.00
2024-03-05T23:14:05.561Z,9.50
2024-03-05T23:16:34.308Z,8.80
2024-03-05T23:19:03.012Z,7.20
2024-03-05T23:21:33.793Z,9.03
2024-03-05T23:24:02.480Z,8.67
2024-03-05T23:26:31.394Z,7.60
2024-03-05T23:29:00.053Z,8.30
2024-03-05T23:31:29.243Z,8.40
2024-03-05T23:33:57.931Z,8.40
2024-03-05T23:36:26.989Z,8.87
2024-03-05T23:38:57.452Z,8.43
2024-03-05T23:41:31.832Z,7.50
2024-03-05T23:44:01.382Z,7.93
2024-03-05T23:46:30.133Z,8.57
2024-03-05T23:48:58.970Z,7.40
2024-03-05T23:51:27.691Z,7.67
2024-03-05T23:53:57.833Z,8.07
2024-03-05T23:56:26.533Z,10.53
2024-03-05T23:58:55.881Z,10.40
